sensor_id;sensor_type;location;lat;lon;timestamp;temperature;humidity
72865;DHT22;61000;48.120;11.548;2023-08-06T00:01:07;14.90;99.90
72865;DHT22;61000;48.120;11.548;2023-08-06T00:03:34;14.80;99.90
72865;DHT22;61000;48.120;11.548;2023-08-06T00:06:01;14.90;99.90
72865;DHT22;61000;48.120;11.548;2023-08-06T00:08:27;14.80;99.90
72865;DHT22;61000;48.120;11.548;2023-08-06T00:10:54;14.90;99.90
72865;DHT22;61000;48.120;11.548;2023-08-06T00:13:21;14.90;99.90
72865;DHT22;61000;48.120;11.548;2023-08-06T00:15:49;14.80;99.90
72865;DHT22;61000;48.120;11.548;2023-08-06T00:18:15;14.80;99.90
72865;DHT22;61000;48.120;11.548;2023-08-06T00:20:42;14.90;99.90
72865;DHT22;61000;48.120;11.548;2023-08-06T00:23:09;14.90;99.90
72865;DHT22;61000;48.120;11.548;2023-08-06T00:25:36;14.90;99.90
72865;DHT22;61000;48.120;11.548;2023-08-06T00:28:03;14.80;99.90
72865;DHT22;61000;48.120;11.548;2023-08-06T00:30:31;14.70;99.90
72865;DHT22;61000;48.120;11.548;2023-08-06T00:33:00;14.70;99.90
72865;DHT22;61000;48.120;11.548;2023-08-06T00:35:27;14.70;99.90
72865;DHT22;61000;48.120;11.548;2023-08-06T00:37:53;14.60;99.90
72865;DHT22;61000;48.120;11.548;2023-08-06T00:40:20;14.50;99.90
72865;DHT22;61000;48.120;11.548;2023-08-06T00:42:49;14.50;99.90
72865;DHT22;61000;48.120;11.548;2023-08-06T00:45:15;14.50;99.90
72865;DHT22;61000;48.120;11.548;2023-08-06T00:47:41;14.40;99.90
72865;DHT22;61000;48.120;11.548;2023-08-06T00:50:10;14.40;99.90
72865;DHT22;61000;48.120;11.548;2023-08-06T01:00:00;14.20;99.90
72865;DHT22;61000;48.120;11.548;2023-08-06T01:02:26;14.10;99.90
72865;DHT22;61000;48.120;11.548;2023-08-06T01:04:53;14.00;99.90
72865;DHT22;61000;48.120;11.548;2023-08-06T01:07:33;14.10;99.90
72865;DHT22;61000;48.120;11.548;2023-08-06T01:10:27;14.00;99.90
72865;DHT22;61000;48.120;11.548;2023-08-06T01:13:06;14.00;99.90
72865;DHT22;61000;48.120;11.548;2023-08-06T01:15:40;14.00;99.90
72865;DHT22;61000;48.120;11.548;2023-08-06T01:18:08;14.00;99.90
72865;DHT22;61000;48.120;11.548;2023-08-06T01:20:36;13.90;99.90
72865;DHT22;61000;48.120;11.548;2023-08-06T01:23:03;14.00;99.90
72865;DHT22;61000;48.120;11.548;2023-08-06T01:25:33;13.90;99.90
72865;DHT22;61000;48.120;11.548;2023-08-06T01:28:06;13.90;99.90
72865;DHT22;61000;48.120;11.548;2023-08-06T01:30:39;13.90;99.90
72865;DHT22;61000;48.120;11.548;2023-08-06T01:33:11;13.90;99.90
72865;DHT22;61000;48.120;11.548;2023-08-06T01:35:41;13.90;99.90
72865;DHT22;61000;48.120;11.548;2023-08-06T01:38:08;13.90;99.90
72865;DHT22;61000;48.120;11.548;2023-08-06T01:40:35;13.90;99.90
72865;DHT22;61000;48.120;11.548;2023-08-06T01:43:02;13.90;99.90
72865;DHT22;61000;48.120;11.548;2023-08-06T01:45:29;13.90;99.90
72865;DHT22;61000;48.120;11.548;2023-08-06T01:47:56;13.90;99.90
72865;DHT22;61000;48.120;11.548;2023-08-06T01:50:23;13.80;99.90
72865;DHT22;61000;48.120;11.548;2023-08-06T01:52:52;13.80;99.90
72865;DHT22;61000;48.120;11.548;2023-08-06T01:55:19;13.80;99.90
72865;DHT22;61000;48.120;11.548;2023-08-06T01:57:46;13.80;99.90
72865;DHT22;61000;48.120;11.548;2023-08-06T02:00:13;13.80;99.90
72865;DHT22;61000;48.120;11.548;2023-08-06T02:02:40;13.80;99.90
72865;DHT22;61000;48.120;11.548;2023-08-06T02:05:07;13.80;99.90
72865;DHT22;61000;48.120;11.548;2023-08-06T02:07:34;13.80;99.90
72865;DHT22;61000;48.120;11.548;2023-08-06T02:10:02;13.70;99.90
72865;DHT22;61000;48.120;11.548;2023-08-06T02:12:29;13.70;99.90
72865;DHT22;61000;48.120;11.548;2023-08-06T02:14:56;13.70;99.90
72865;DHT22;61000;48.120;11.548;2023-08-06T02:17:23;13.70;99.90
72865;DHT22;61000;48.120;11.548;2023-08-06T02:19:49;13.70;99.90
72865;DHT22;61000;48.120;11.548;2023-08-06T02:22:16;13.70;99.90
72865;DHT22;61000;48.120;11.548;2023-08-06T02:24:43;13.70;99.90
72865;DHT22;61000;48.120;11.548;2023-08-06T02:27:11;13.70;99.90
72865;DHT22;61000;48.120;11.548;2023-08-06T02:29:40;13.70;99.90
72865;DHT22;61000;48.120;11.548;2023-08-06T02:32:07;13.70;99.90
72865;DHT22;61000;48.120;11.548;2023-08-06T02:34:34;13.70;99.90
72865;DHT22;61000;48.120;11.548;2023-08-06T02:37:01;13.70;99.90
72865;DHT22;61000;48.120;11.548;2023-08-06T02:39:28;13.60;99.90
72865;DHT22;61000;48.120;11.548;2023-08-06T02:41:57;13.60;99.90
72865;DHT22;61000;48.120;11.548;2023-08-06T02:44:27;13.70;99.90
72865;DHT22;61000;48.120;11.548;2023-08-06T02:46:54;13.60;99.90
72865;DHT22;61000;48.120;11.548;2023-08-06T02:49:21;13.60;99.90
72865;DHT22;61000;48.120;11.548;2023-08-06T02:51:48;13.60;99.90
72865;DHT22;61000;48.120;11.548;2023-08-06T02:54:15;13.60;99.90
72865;DHT22;61000;48.120;11.548;2023-08-06T02:56:43;13.60;99.90
72865;DHT22;61000;48.120;11.548;2023-08-06T02:59:32;13.50;99.90
72865;DHT22;61000;48.120;11.548;2023-08-06T03:02:06;13.60;99.90
72865;DHT22;61000;48.120;11.548;2023-08-06T03:05:08;13.50;99.90
72865;DHT22;61000;48.120;11.548;2023-08-06T03:07:40;13.50;99.90
72865;DHT22;61000;48.120;11.548;2023-08-06T03:10:13;13.50;99.90
72865;DHT22;61000;48.120;11.548;2023-08-06T03:12:42;13.50;99.90
72865;DHT22;61000;48.120;11.548;2023-08-06T03:15:10;13.50;99.90
72865;DHT22;61000;48.120;11.548;2023-08-06T03:17:38;13.40;99.90
72865;DHT22;61000;48.120;11.548;2023-08-06T03:20:07;13.40;99.90
72865;DHT22;61000;48.120;11.548;2023-08-06T03:22:35;13.40;99.90
72865;DHT22;61000;48.120;11.548;2023-08-06T03:25:02;13.40;99.90
72865;DHT22;61000;48.120;11.548;2023-08-06T03:27:29;13.30;99.90
72865;DHT22;61000;48.120;11.548;2023-08-06T03:29:56;13.40;99.90
72865;DHT22;61000;48.120;11.548;2023-08-06T03:32:27;13.30;99.90
72865;DHT22;61000;48.120;11.548;2023-08-06T03:34:54;13.30;99.90
72865;DHT22;61000;48.120;11.548;2023-08-06T03:37:24;13.30;99.90
72865;DHT22;61000;48.120;11.548;2023-08-06T03:39:51;13.30;99.90
72865;DHT22;61000;48.120;11.548;2023-08-06T03:42:18;13.30;99.90
72865;DHT22;61000;48.120;11.548;2023-08-06T03:44:45;13.30;99.90
72865;DHT22;61000;48.120;11.548;2023-08-06T03:47:13;13.30;99.90
72865;DHT22;61000;48.120;11.548;2023-08-06T03:49:41;13.30;99.90
72865;DHT22;61000;48.120;11.548;2023-08-06T03:52:09;13.30;99.90
72865;DHT22;61000;48.120;11.548;2023-08-06T03:54:36;13.30;99.90
72865;DHT22;61000;48.120;11.548;2023-08-06T03:57:03;13.30;99.90
72865;DHT22;61000;48.120;11.548;2023-08-06T03:59:31;13.30;99.90
72865;DHT22;61000;48.120;11.548;2023-08-06T04:01:58;13.20;99.90
72865;DHT22;61000;48.120;11.548;2023-08-06T04:04:25;13.20;99.90
72865;DHT22;61000;48.120;11.548;2023-08-06T04:06:53;13.20;99.90
72865;DHT22;61000;48.120;11.548;2023-08-06T04:09:22;13.20;99.90
72865;DHT22;61000;48.120;11.548;2023-08-06T04:11:48;13.20;99.90
72865;DHT22;61000;48.120;11.548;2023-08-06T04:14:15;13.20;99.90
72865;DHT22;61000;48.120;11.548;2023-08-06T04:16:42;13.20;99.90
72865;DHT22;61000;48.120;11.548;2023-08-06T04:19:09;13.20;99.90
72865;DHT22;61000;48.120;11.548;2023-08-06T04:21:36;13.20;99.90
72865;DHT22;61000;48.120;11.548;2023-08-06T04:24:05;13.20;99.90
72865;DHT22;61000;48.120;11.548;2023-08-06T04:26:32;13.20;99.90
72865;DHT22;61000;48.120;11.548;2023-08-06T04:28:59;13.30;99.90
72865;DHT22;61000;48.120;11.548;2023-08-06T04:31:28;13.30;99.90
72865;DHT22;61000;48.120;11.548;2023-08-06T04:33:58;13.30;99.90
72865;DHT22;61000;48.120;11.548;2023-08-06T04:36:25;13.30;99.90
72865;DHT22;61000;48.120;11.548;2023-08-06T04:38:52;13.30;99.90
72865;DHT22;61000;48.120;11.548;2023-08-06T04:41:20;13.30;99.90
72865;DHT22;61000;48.120;11.548;2023-08-06T04:43:47;13.30;99.90
72865;DHT22;61000;48.120;11.548;2023-08-06T04:46:13;13.30;99.90
72865;DHT22;61000;48.120;11.548;2023-08-06T04:48:40;13.30;99.90
72865;DHT22;61000;48.120;11.548;2023-08-06T04:51:07;13.40;99.90
72865;DHT22;61000;48.120;11.548;2023-08-06T04:53:34;13.40;99.90
72865;DHT22;61000;48.120;11.548;2023-08-06T04:56:01;13.40;99.90
72865;DHT22;61000;48.120;11.548;2023-08-06T04:58:29;13.50;99.90
72865;DHT22;61000;48.120;11.548;2023-08-06T05:00:56;13.50;99.90
72865;DHT22;61000;48.120;11.548;2023-08-06T05:03:23;13.50;99.90
72865;DHT22;61000;48.120;11.548;2023-08-06T05:05:49;13.50;99.90
72865;DHT22;61000;48.120;11.548;2023-08-06T05:08:16;13.50;99.90
72865;DHT22;61000;48.120;11.548;2023-08-06T05:10:44;13.50;99.90
72865;DHT22;61000;48.120;11.548;2023-08-06T05:13:10;13.50;99.90
72865;DHT22;61000;48.120;11.548;2023-08-06T05:15:39;13.60;99.90
72865;DHT22;61000;48.120;11.548;2023-08-06T05:18:08;13.60;99.90
72865;DHT22;61000;48.120;11.548;2023-08-06T05:20:36;13.60;99.90
72865;DHT22;61000;48.120;11.548;2023-08-06T05:23:03;13.60;99.90
72865;DHT22;61000;48.120;11.548;2023-08-06T05:25:30;13.60;99.90
72865;DHT22;61000;48.120;11.548;2023-08-06T05:27:57;13.60;99.90
72865;DHT22;61000;48.120;11.548;2023-08-06T05:30:24;13.60;99.90
72865;DHT22;61000;48.120;11.548;2023-08-06T05:32:52;13.70;99.90
72865;DHT22;61000;48.120;11.548;2023-08-06T05:35:20;13.70;99.90
72865;DHT22;61000;48.120;11.548;2023-08-06T05:37:48;13.70;99.90
72865;DHT22;61000;48.120;11.548;2023-08-06T05:40:15;13.80;99.90
72865;DHT22;61000;48.120;11.548;2023-08-06T05:42:42;13.80;99.90
72865;DHT22;61000;48.120;11.548;2023-08-06T05:45:09;13.90;99.90
72865;DHT22;61000;48.120;11.548;2023-08-06T05:47:36;13.90;99.90
72865;DHT22;61000;48.120;11.548;2023-08-06T05:50:05;13.90;99.90
72865;DHT22;61000;48.120;11.548;2023-08-06T05:52:32;14.00;99.90
72865;DHT22;61000;48.120;11.548;2023-08-06T05:54:59;14.00;99.90
72865;DHT22;61000;48.120;11.548;2023-08-06T05:57:26;14.10;99.90
72865;DHT22;61000;48.120;11.548;2023-08-06T05:59:53;14.20;99.90
72865;DHT22;61000;48.120;11.548;2023-08-06T06:02:20;14.20;99.90
72865;DHT22;61000;48.120;11.548;2023-08-06T06:04:47;14.20;99.90
72865;DHT22;61000;48.120;11.548;2023-08-06T06:07:15;14.30;99.90
72865;DHT22;61000;48.120;11.548;2023-08-06T06:09:42;14.40;99.90
72865;DHT22;61000;48.120;11.548;2023-08-06T06:12:09;14.50;99.90
72865;DHT22;61000;48.120;11.548;2023-08-06T06:14:36;14.50;99.90
72865;DHT22;61000;48.120;11.548;2023-08-06T06:17:04;14.60;99.90
72865;DHT22;61000;48.120;11.548;2023-08-06T06:19:31;14.60;99.90
72865;DHT22;61000;48.120;11.548;2023-08-06T06:21:57;14.70;99.90
72865;DHT22;61000;48.120;11.548;2023-08-06T06:24:26;14.70;99.90
72865;DHT22;61000;48.120;11.548;2023-08-06T06:26:53;14.80;99.90
72865;DHT22;61000;48.120;11.548;2023-08-06T06:29:19;14.80;99.90
72865;DHT22;61000;48.120;11.548;2023-08-06T06:31:46;14.80;99.90
72865;DHT22;61000;48.120;11.548;2023-08-06T06:34:13;14.90;99.90
72865;DHT22;61000;48.120;11.548;2023-08-06T06:36:40;14.90;99.90
72865;DHT22;61000;48.120;11.548;2023-08-06T06:39:08;15.00;99.90
72865;DHT22;61000;48.120;11.548;2023-08-06T06:41:36;15.10;99.90
72865;DHT22;61000;48.120;11.548;2023-08-06T06:44:10;15.20;99.90
72865;DHT22;61000;48.120;11.548;2023-08-06T06:46:37;15.20;99.90
72865;DHT22;61000;48.120;11.548;2023-08-06T06:49:04;15.30;99.90
72865;DHT22;61000;48.120;11.548;2023-08-06T06:51:31;15.40;99.90
72865;DHT22;61000;48.120;11.548;2023-08-06T06:53:58;15.40;99.90
72865;DHT22;61000;48.120;11.548;2023-08-06T06:56:25;15.40;99.90
72865;DHT22;61000;48.120;11.548;2023-08-06T06:58:53;15.50;99.90
72865;DHT22;61000;48.120;11.548;2023-08-06T07:01:20;15.60;99.90
72865;DHT22;61000;48.120;11.548;2023-08-06T07:03:47;15.70;99.90
72865;DHT22;61000;48.120;11.548;2023-08-06T07:06:14;15.70;99.90
72865;DHT22;61000;48.120;11.548;2023-08-06T07:08:44;15.80;99.90
72865;DHT22;61000;48.120;11.548;2023-08-06T07:11:10;16.00;99.90
72865;DHT22;61000;48.120;11.548;2023-08-06T07:13:37;16.20;99.90
72865;DHT22;61000;48.120;11.548;2023-08-06T07:16:06;16.30;99.90
72865;DHT22;61000;48.120;11.548;2023-08-06T07:18:32;16.30;99.90
72865;DHT22;61000;48.120;11.548;2023-08-06T07:20:59;16.30;99.90
72865;DHT22;61000;48.120;11.548;2023-08-06T07:23:26;16.30;99.90
72865;DHT22;61000;48.120;11.548;2023-08-06T07:25:53;16.30;99.90
72865;DHT22;61000;48.120;11.548;2023-08-06T07:28:20;16.10;99.90
72865;DHT22;61000;48.120;11.548;2023-08-06T07:30:48;16.00;99.90
72865;DHT22;61000;48.120;11.548;2023-08-06T07:33:16;15.80;99.90
72865;DHT22;61000;48.120;11.548;2023-08-06T07:35:43;15.70;99.90
72865;DHT22;61000;48.120;11.548;2023-08-06T07:38:10;15.60;99.90
72865;DHT22;61000;48.120;11.548;2023-08-06T07:40:37;15.50;99.90
72865;DHT22;61000;48.120;11.548;2023-08-06T07:43:04;15.50;99.90
72865;DHT22;61000;48.120;11.548;2023-08-06T07:45:33;15.50;99.90
72865;DHT22;61000;48.120;11.548;2023-08-06T07:48:01;15.60;99.90
72865;DHT22;61000;48.120;11.548;2023-08-06T07:50:29;15.60;99.90
72865;DHT22;61000;48.120;11.548;2023-08-06T07:52:56;15.50;99.90
72865;DHT22;61000;48.120;11.548;2023-08-06T07:55:23;15.50;99.90
72865;DHT22;61000;48.120;11.548;2023-08-06T07:57:50;15.50;99.90
72865;DHT22;61000;48.120;11.548;2023-08-06T08:00:17;15.50;99.90
72865;DHT22;61000;48.120;11.548;2023-08-06T08:02:44;15.60;99.90
72865;DHT22;61000;48.120;11.548;2023-08-06T08:05:13;15.80;99.90
72865;DHT22;61000;48.120;11.548;2023-08-06T08:07:42;16.00;99.90
72865;DHT22;61000;48.120;11.548;2023-08-06T08:10:09;16.20;99.90
72865;DHT22;61000;48.120;11.548;2023-08-06T08:12:36;16.40;99.90
72865;DHT22;61000;48.120;11.548;2023-08-06T08:15:04;16.50;99.90
72865;DHT22;61000;48.120;11.548;2023-08-06T08:17:31;16.50;99.90
72865;DHT22;61000;48.120;11.548;2023-08-06T08:19:58;16.60;99.90
72865;DHT22;61000;48.120;11.548;2023-08-06T08:22:25;16.60;99.90
72865;DHT22;61000;48.120;11.548;2023-08-06T08:24:53;16.70;99.90
72865;DHT22;61000;48.120;11.548;2023-08-06T08:27:20;16.80;99.90
72865;DHT22;61000;48.120;11.548;2023-08-06T08:29:47;17.00;99.90
72865;DHT22;61000;48.120;11.548;2023-08-06T08:32:13;16.90;99.90
72865;DHT22;61000;48.120;11.548;2023-08-06T08:34:40;16.90;99.90
72865;DHT22;61000;48.120;11.548;2023-08-06T08:37:07;17.00;99.90
72865;DHT22;61000;48.120;11.548;2023-08-06T08:39:34;17.00;99.90
72865;DHT22;61000;48.120;11.548;2023-08-06T08:42:02;17.10;99.90
72865;DHT22;61000;48.120;11.548;2023-08-06T08:44:30;17.10;99.90
72865;DHT22;61000;48.120;11.548;2023-08-06T08:46:58;17.00;99.90
72865;DHT22;61000;48.120;11.548;2023-08-06T08:49:27;16.90;99.90
72865;DHT22;61000;48.120;11.548;2023-08-06T08:51:54;16.90;99.90
72865;DHT22;61000;48.120;11.548;2023-08-06T08:54:23;16.80;99.90
72865;DHT22;61000;48.120;11.548;2023-08-06T08:56:50;16.80;99.90
72865;DHT22;61000;48.120;11.548;2023-08-06T08:59:18;16.80;99.90
72865;DHT22;61000;48.120;11.548;2023-08-06T09:01:49;17.00;99.90
72865;DHT22;61000;48.120;11.548;2023-08-06T09:04:17;17.10;99.90
72865;DHT22;61000;48.120;11.548;2023-08-06T09:06:47;17.10;99.90
72865;DHT22;61000;48.120;11.548;2023-08-06T09:09:21;17.20;99.90
72865;DHT22;61000;48.120;11.548;2023-08-06T09:11:49;17.20;99.90
72865;DHT22;61000;48.120;11.548;2023-08-06T09:14:17;17.10;99.90
72865;DHT22;61000;48.120;11.548;2023-08-06T09:16:44;17.10;99.90
72865;DHT22;61000;48.120;11.548;2023-08-06T09:19:12;17.00;99.90
72865;DHT22;61000;48.120;11.548;2023-08-06T09:21:39;17.00;99.90
72865;DHT22;61000;48.120;11.548;2023-08-06T09:24:08;16.70;99.90
72865;DHT22;61000;48.120;11.548;2023-08-06T09:26:36;16.60;99.90
72865;DHT22;61000;48.120;11.548;2023-08-06T09:29:05;16.40;99.90
72865;DHT22;61000;48.120;11.548;2023-08-06T09:31:45;16.30;99.90
72865;DHT22;61000;48.120;11.548;2023-08-06T09:34:16;16.20;99.90
72865;DHT22;61000;48.120;11.548;2023-08-06T09:36:43;16.10;99.90
72865;DHT22;61000;48.120;11.548;2023-08-06T09:39:13;16.20;99.90
72865;DHT22;61000;48.120;11.548;2023-08-06T09:41:41;16.30;99.90
72865;DHT22;61000;48.120;11.548;2023-08-06T09:44:15;16.30;99.90
72865;DHT22;61000;48.120;11.548;2023-08-06T09:46:47;16.40;99.90
72865;DHT22;61000;48.120;11.548;2023-08-06T09:49:14;16.50;99.90
72865;DHT22;61000;48.120;11.548;2023-08-06T09:51:41;16.70;99.90
72865;DHT22;61000;48.120;11.548;2023-08-06T09:54:12;16.60;99.90
72865;DHT22;61000;48.120;11.548;2023-08-06T09:56:43;16.50;99.90
72865;DHT22;61000;48.120;11.548;2023-08-06T09:59:10;16.50;99.90
72865;DHT22;61000;48.120;11.548;2023-08-06T10:01:37;16.50;99.90
72865;DHT22;61000;48.120;11.548;2023-08-06T10:04:06;16.60;99.90
72865;DHT22;61000;48.120;11.548;2023-08-06T10:06:35;16.60;99.90
72865;DHT22;61000;48.120;11.548;2023-08-06T10:09:02;16.50;99.90
72865;DHT22;61000;48.120;11.548;2023-08-06T10:11:31;16.20;99.90
72865;DHT22;61000;48.120;11.548;2023-08-06T10:14:02;16.10;99.90
72865;DHT22;61000;48.120;11.548;2023-08-06T10:16:30;16.00;99.90
72865;DHT22;61000;48.120;11.548;2023-08-06T10:18:58;16.00;99.90
72865;DHT22;61000;48.120;11.548;2023-08-06T10:21:26;16.00;99.90
72865;DHT22;61000;48.120;11.548;2023-08-06T10:23:56;16.10;99.90
72865;DHT22;61000;48.120;11.548;2023-08-06T10:26:25;16.40;99.90
72865;DHT22;61000;48.120;11.548;2023-08-06T10:28:53;16.70;99.90
72865;DHT22;61000;48.120;11.548;2023-08-06T10:31:24;17.10;99.90
72865;DHT22;61000;48.120;11.548;2023-08-06T10:34:11;17.50;99.70
72865;DHT22;61000;48.120;11.548;2023-08-06T10:36:39;17.50;98.90
72865;DHT22;61000;48.120;11.548;2023-08-06T10:39:13;17.20;99.40
72865;DHT22;61000;48.120;11.548;2023-08-06T10:41:42;17.00;99.80
72865;DHT22;61000;48.120;11.548;2023-08-06T10:44:10;16.90;99.90
72865;DHT22;61000;48.120;11.548;2023-08-06T10:46:38;16.80;99.90
72865;DHT22;61000;48.120;11.548;2023-08-06T10:49:05;16.70;99.90
72865;DHT22;61000;48.120;11.548;2023-08-06T10:51:32;16.60;99.90
72865;DHT22;61000;48.120;11.548;2023-08-06T10:54:01;16.40;99.90
72865;DHT22;61000;48.120;11.548;2023-08-06T10:56:29;16.50;99.90
72865;DHT22;61000;48.120;11.548;2023-08-06T10:58:57;16.70;99.90
72865;DHT22;61000;48.120;11.548;2023-08-06T11:01:24;16.90;99.90
72865;DHT22;61000;48.120;11.548;2023-08-06T11:03:54;17.10;99.90
72865;DHT22;61000;48.120;11.548;2023-08-06T11:06:22;17.50;99.90
72865;DHT22;61000;48.120;11.548;2023-08-06T11:08:52;17.60;99.00
72865;DHT22;61000;48.120;11.548;2023-08-06T11:11:22;17.60;99.20
72865;DHT22;61000;48.120;11.548;2023-08-06T11:13:52;17.70;99.00
72865;DHT22;61000;48.120;11.548;2023-08-06T11:16:20;17.60;98.70
72865;DHT22;61000;48.120;11.548;2023-08-06T11:18:48;17.50;99.20
72865;DHT22;61000;48.120;11.548;2023-08-06T11:21:18;17.40;98.60
72865;DHT22;61000;48.120;11.548;2023-08-06T11:23:45;17.10;99.70
72865;DHT22;61000;48.120;11.548;2023-08-06T11:26:12;17.00;99.90
72865;DHT22;61000;48.120;11.548;2023-08-06T11:28:46;16.90;99.60
72865;DHT22;61000;48.120;11.548;2023-08-06T11:31:19;16.60;99.70
72865;DHT22;61000;48.120;11.548;2023-08-06T11:33:46;16.60;99.90
72865;DHT22;61000;48.120;11.548;2023-08-06T11:36:13;16.80;99.90
72865;DHT22;61000;48.120;11.548;2023-08-06T11:38:40;16.90;99.90
72865;DHT22;61000;48.120;11.548;2023-08-06T11:41:07;16.80;99.90
72865;DHT22;61000;48.120;11.548;2023-08-06T11:43:34;16.70;99.90
72865;DHT22;61000;48.120;11.548;2023-08-06T11:46:02;16.60;99.90
72865;DHT22;61000;48.120;11.548;2023-08-06T11:48:29;16.50;99.90
72865;DHT22;61000;48.120;11.548;2023-08-06T11:50:56;16.60;99.90
72865;DHT22;61000;48.120;11.548;2023-08-06T11:53:27;16.60;99.90
72865;DHT22;61000;48.120;11.548;2023-08-06T11:55:54;16.70;99.90
72865;DHT22;61000;48.120;11.548;2023-08-06T11:58:21;16.70;99.90
72865;DHT22;61000;48.120;11.548;2023-08-06T12:00:48;16.90;99.90
72865;DHT22;61000;48.120;11.548;2023-08-06T12:03:18;17.20;99.90
72865;DHT22;61000;48.120;11.548;2023-08-06T12:05:45;17.20;99.90
72865;DHT22;61000;48.120;11.548;2023-08-06T12:08:13;17.30;99.90
72865;DHT22;61000;48.120;11.548;2023-08-06T12:10:40;17.40;99.90
72865;DHT22;61000;48.120;11.548;2023-08-06T12:13:07;17.20;99.90
72865;DHT22;61000;48.120;11.548;2023-08-06T12:15:34;17.10;99.90
72865;DHT22;61000;48.120;11.548;2023-08-06T12:18:01;16.90;99.90
72865;DHT22;61000;48.120;11.548;2023-08-06T12:20:29;16.90;99.90
72865;DHT22;61000;48.120;11.548;2023-08-06T12:22:56;16.90;99.90
72865;DHT22;61000;48.120;11.548;2023-08-06T12:25:23;16.80;99.90
72865;DHT22;61000;48.120;11.548;2023-08-06T12:27:50;16.70;99.90
72865;DHT22;61000;48.120;11.548;2023-08-06T12:30:16;16.60;99.90
72865;DHT22;61000;48.120;11.548;2023-08-06T12:32:43;16.50;99.90
72865;DHT22;61000;48.120;11.548;2023-08-06T12:35:10;16.50;99.90
72865;DHT22;61000;48.120;11.548;2023-08-06T12:37:38;16.50;99.90
72865;DHT22;61000;48.120;11.548;2023-08-06T12:40:06;16.40;99.90
72865;DHT22;61000;48.120;11.548;2023-08-06T12:42:33;16.40;99.90
72865;DHT22;61000;48.120;11.548;2023-08-06T12:45:00;16.30;99.90
72865;DHT22;61000;48.120;11.548;2023-08-06T12:47:27;16.20;99.90
72865;DHT22;61000;48.120;11.548;2023-08-06T12:49:54;16.00;99.90
72865;DHT22;61000;48.120;11.548;2023-08-06T12:52:20;15.80;99.90
72865;DHT22;61000;48.120;11.548;2023-08-06T12:54:49;15.80;99.90
72865;DHT22;61000;48.120;11.548;2023-08-06T12:57:15;15.80;99.90
72865;DHT22;61000;48.120;11.548;2023-08-06T12:59:43;15.90;99.90
72865;DHT22;61000;48.120;11.548;2023-08-06T13:02:09;16.10;99.90
72865;DHT22;61000;48.120;11.548;2023-08-06T13:04:36;16.00;99.90
72865;DHT22;61000;48.120;11.548;2023-08-06T13:07:03;16.10;99.90
72865;DHT22;61000;48.120;11.548;2023-08-06T13:09:32;16.20;99.90
72865;DHT22;61000;48.120;11.548;2023-08-06T13:12:00;16.10;99.90
72865;DHT22;61000;48.120;11.548;2023-08-06T13:14:31;16.20;99.90
72865;DHT22;61000;48.120;11.548;2023-08-06T13:16:58;16.20;99.90
72865;DHT22;61000;48.120;11.548;2023-08-06T13:19:32;16.20;99.90
72865;DHT22;61000;48.120;11.548;2023-08-06T13:22:01;16.20;99.90
72865;DHT22;61000;48.120;11.548;2023-08-06T13:24:29;16.10;99.90
72865;DHT22;61000;48.120;11.548;2023-08-06T13:26:56;15.90;99.90
72865;DHT22;61000;48.120;11.548;2023-08-06T13:29:25;15.70;99.90
72865;DHT22;61000;48.120;11.548;2023-08-06T13:31:52;15.50;99.90
72865;DHT22;61000;48.120;11.548;2023-08-06T13:34:19;15.40;99.90
72865;DHT22;61000;48.120;11.548;2023-08-06T13:36:46;15.30;99.90
72865;DHT22;61000;48.120;11.548;2023-08-06T13:39:13;15.40;99.90
72865;DHT22;61000;48.120;11.548;2023-08-06T13:41:42;15.40;99.90
72865;DHT22;61000;48.120;11.548;2023-08-06T13:44:09;15.60;99.90
72865;DHT22;61000;48.120;11.548;2023-08-06T13:46:37;15.60;99.90
72865;DHT22;61000;48.120;11.548;2023-08-06T13:49:04;15.70;99.90
72865;DHT22;61000;48.120;11.548;2023-08-06T13:51:31;15.70;99.90
72865;DHT22;61000;48.120;11.548;2023-08-06T13:53:59;15.60;99.90
72865;DHT22;61000;48.120;11.548;2023-08-06T13:56:26;15.60;99.90
72865;DHT22;61000;48.120;11.548;2023-08-06T13:58:55;15.60;99.90
72865;DHT22;61000;48.120;11.548;2023-08-06T14:01:22;15.50;99.90
72865;DHT22;61000;48.120;11.548;2023-08-06T14:03:50;15.40;99.90
72865;DHT22;61000;48.120;11.548;2023-08-06T14:06:17;15.20;99.90
72865;DHT22;61000;48.120;11.548;2023-08-06T14:08:46;15.10;99.90
72865;DHT22;61000;48.120;11.548;2023-08-06T14:11:13;14.90;99.90
72865;DHT22;61000;48.120;11.548;2023-08-06T14:13:40;14.80;99.90
72865;DHT22;61000;48.120;11.548;2023-08-06T14:16:07;14.80;99.90
72865;DHT22;61000;48.120;11.548;2023-08-06T14:18:34;14.80;99.90
72865;DHT22;61000;48.120;11.548;2023-08-06T14:21:04;14.70;99.90
72865;DHT22;61000;48.120;11.548;2023-08-06T14:23:31;14.70;99.90
72865;DHT22;61000;48.120;11.548;2023-08-06T14:25:58;14.70;99.90
72865;DHT22;61000;48.120;11.548;2023-08-06T14:28:25;14.50;99.90
72865;DHT22;61000;48.120;11.548;2023-08-06T14:30:52;14.50;99.90
72865;DHT22;61000;48.120;11.548;2023-08-06T14:33:19;14.40;99.90
72865;DHT22;61000;48.120;11.548;2023-08-06T14:35:46;14.30;99.90
72865;DHT22;61000;48.120;11.548;2023-08-06T14:38:14;14.10;99.90
72865;DHT22;61000;48.120;11.548;2023-08-06T14:40:41;14.00;99.90
72865;DHT22;61000;48.120;11.548;2023-08-06T14:43:09;14.00;99.90
72865;DHT22;61000;48.120;11.548;2023-08-06T14:45:37;14.00;99.90
72865;DHT22;61000;48.120;11.548;2023-08-06T14:48:05;14.00;99.90
72865;DHT22;61000;48.120;11.548;2023-08-06T14:50:32;14.00;99.90
72865;DHT22;61000;48.120;11.548;2023-08-06T14:53:00;13.90;99.90
72865;DHT22;61000;48.120;11.548;2023-08-06T14:55:29;13.90;99.90
72865;DHT22;61000;48.120;11.548;2023-08-06T14:57:56;13.90;99.90
72865;DHT22;61000;48.120;11.548;2023-08-06T15:00:23;13.80;99.90
72865;DHT22;61000;48.120;11.548;2023-08-06T15:02:49;13.80;99.90
72865;DHT22;61000;48.120;11.548;2023-08-06T15:05:16;13.80;99.90
72865;DHT22;61000;48.120;11.548;2023-08-06T15:07:43;13.70;99.90
72865;DHT22;61000;48.120;11.548;2023-08-06T15:10:10;13.60;99.90
72865;DHT22;61000;48.120;11.548;2023-08-06T15:12:38;13.60;99.90
72865;DHT22;61000;48.120;11.548;2023-08-06T15:15:07;13.60;99.90
72865;DHT22;61000;48.120;11.548;2023-08-06T15:17:37;13.70;99.90
72865;DHT22;61000;48.120;11.548;2023-08-06T15:20:05;13.80;99.90
72865;DHT22;61000;48.120;11.548;2023-08-06T15:22:35;13.90;99.90
72865;DHT22;61000;48.120;11.548;2023-08-06T15:25:03;13.90;99.90
72865;DHT22;61000;48.120;11.548;2023-08-06T15:27:30;13.80;99.90